Meteo Giornale » Osservazioni meteo Italia » Catania-Fontanarossa

ore: 09:20 - Osservazioni Meteo Catania-Fontanarossa
Lat. 37° 28' N Lon. 15° 3' E Alt. 11 metri s.l.m.

nuvoloso Europe/Rome

15 °C

Nuvoloso

Temp. 24 Ore

10 °C

21 °C

Nord

7.4 Km/h

Dew point 12 °C

Umidità 82 %

Visibilità  9 Km

Il sole sorge alle ore 06:34

Il sole tramonta alle ore 17:51

Data e Ora Cielo e Fenomeni T °C DP °C Um. % Pres. hPa Vis. km Vento km/h
Oggi h: 09:20 nuvoloso Nuvoloso 15 12 82 1011 9 N 7.4
Oggi h: 08:50 molto_nuvoloso Molto Nuvoloso 16 12 77 1011 9 E 7.4
Oggi h: 07:20 molto_nuvoloso Molto Nuvoloso 14 12 87 1010 8 NE 20.3
Oggi h: 06:50 molto_nuvoloso Molto Nuvoloso 14 12 87 1010 8 NE 16.7
Oggi h: 06:20 nuvoloso Nuvoloso 14 13 93 1010 10 E/NE 14.8
Oggi h: 05:50 nuvoloso Nuvoloso 14 13 93 1010 10 NE 22.2
Oggi h: 05:20 nuvoloso Nuvoloso 13 12 93 1010 10 E/NE 16.7
Oggi h: 04:20 coperto_pioggia Pioggia Debole 12 11 93 1013 10 O/SO 7.4
Oggi h: 03:50 coperto_pioggia Pioggia Debole 13 11 87 1013 10 N 9.3
Oggi h: 03:20 nuvoloso Nuvoloso 12 10 87 1011 10 E/NE 13
Oggi h: 02:50 coperto_pioggia Pioggia Debole 13 10 81 1014 10 O/NO 16.7
Oggi h: 02:20 nuvoloso Nuvoloso 14 11 82 1012 10 NE 22.2
Oggi h: 01:50 nuvoloso Nuvoloso 14 11 82 1011 10 E/NE 22.2
Oggi h: 01:20 nuvoloso Nuvoloso 14 11 82 1012 10 E/NE 18.5
Oggi h: 00:50 coperto_pioggia Pioviggine Leggera 14 11 82 1013 10 E 20.3
Oggi h: 00:20 nuvoloso Nuvoloso 14 11 82 1013 10 E/NE 16.7
Ieri h: 23:20 nuvoloso Nuvoloso 14 11 82 1014 10 E/NE 16.7
Ieri h: 22:50 nuvoloso Nuvoloso 15 11 76 1014 10 NE 13
Ieri h: 22:20 nuvoloso Nuvoloso 14 11 82 1014 10 NE 16.7
Ieri h: 21:50 poco_nuvoloso Poco Nuvoloso 14 10 76 1014 10 NE 13
Ieri h: 21:20 sereno Sereno 14 10 76 1014 10 E/NE 13
Ieri h: 20:50 sereno Sereno 13 11 87 1014 10 N 5.5
Ieri h: 20:20 sereno Sereno 14 10 76 1015 10 N 3.7
Ieri h: 19:50 sereno Sereno 14 10 76 1015 10 NE 7.4
Ieri h: 19:20 sereno Sereno 14 10 76 1015 10 NE 7.4
Ieri h: 18:50 sereno Sereno 14 11 82 1015 10 E 7.4
Ieri h: 18:20 sereno Sereno 14 11 82 1015 10 E 7.4
Ieri h: 17:50 sereno Sereno 14 10 76 1014 10 E 7.4
Ieri h: 17:20 sereno Sereno 15 10 72 1014 10 NE 7.4
Ieri h: 16:50 sereno Sereno 15 10 72 1014 10 E 9.3
Ieri h: 16:20 sereno Sereno 16 10 67 1014 10 E 11.1
Ieri h: 15:50 sereno Sereno 17 9 59 1014 10 E/NE 13
Ieri h: 15:20 sereno Sereno 17 11 67 1014 10 NE 14.8
Ieri h: 14:50 sereno Sereno 21 7 40 1014 10 O/SO 13
Ieri h: 14:20 sereno Sereno 21 7 40 1014 10 O/SO 16.7
Ieri h: 13:20 sereno Sereno 19 10 55 1015 10 SO 11.1
Ieri h: 12:50 sereno Sereno 18 9 55 1016 10 SO 13
Ieri h: 12:20 sereno Sereno 18 9 55 1016 10 SO 14.8
Ieri h: 11:50 sereno Sereno 17 8 55 1016 10 S/SO 11.1
Ieri h: 11:20 sereno Sereno 16 9 63 1017 10 S/SO 11.1
Ieri h: 10:50 sereno Sereno 15 8 62 1017 10 S/SO 11.1
Ieri h: 10:20 sereno Sereno 14 8 67 1017 10 SO 9.3
Ieri h: 09:50 sereno Sereno 12 8 76 1018 10 SO 7.4
Ieri h: 09:20 sereno Sereno 10 7 81 1018 10 O/SO 11.1